Time;durP1;ratioP1;P1;durP2;ratioP2;P2;SDS_P1;SDS_P2;PMS_P1;PMS_P2;Temp;Humidity;BMP_temperature;BMP_pressure;BME280_temperature;BME280_humidity;BME280_pressure;Samples;Min_cycle;Max_cycle;Signal;HPM_P1;HPM_P2
2021/01/18 00:01:31;;;;;;;21.50;10.02;;;4.70;99.90;;;;;;5107426;27;20458;-75
2021/01/18 00:03:58;;;;;;;18.83;9.40;;;4.90;99.90;;;;;;5094427;27;20039;-73
2021/01/18 00:06:25;;;;;;;20.60;9.30;;;4.70;99.90;;;;;;5092661;28;20517;-75
2021/01/18 00:08:51;;;;;;;24.98;10.27;;;4.70;99.90;;;;;;5098457;28;20560;-73
2021/01/18 00:11:19;;;;;;;21.10;9.82;;;4.70;99.90;;;;;;5113148;28;20520;-73
2021/01/18 00:13:48;;;;;;;21.67;9.27;;;4.70;99.90;;;;;;5108620;28;20161;-73
2021/01/18 00:16:15;;;;;;;25.70;10.73;;;4.60;99.90;;;;;;5104967;28;20116;-74
2021/01/18 00:18:42;;;;;;;22.27;10.48;;;4.90;99.90;;;;;;5111437;28;20135;-74
2021/01/18 00:21:09;;;;;;;21.15;10.10;;;4.60;99.90;;;;;;5110694;28;20040;-73
2021/01/18 00:23:37;;;;;;;27.13;10.98;;;4.80;99.90;;;;;;5106662;28;20127;-74
2021/01/18 00:26:05;;;;;;;29.27;12.25;;;4.60;99.90;;;;;;5106965;28;20098;-73
2021/01/18 00:36:07;;;;;;;26.13;10.38;;;4.20;99.90;;;;;;5097553;28;20089;-73
2021/01/18 00:38:34;;;;;;;27.02;11.93;;;4.20;99.90;;;;;;5103013;28;20459;-74
2021/01/18 00:41:03;;;;;;;22.70;11.07;;;4.30;99.90;;;;;;5104239;28;20045;-73
2021/01/18 00:43:30;;;;;;;24.25;12.15;;;4.00;99.90;;;;;;5112276;28;20079;-74
2021/01/18 00:45:57;;;;;;;33.90;12.13;;;4.20;99.90;;;;;;5105087;28;20406;-73
2021/01/18 00:48:24;;;;;;;23.92;11.43;;;4.00;99.90;;;;;;5108102;28;20482;-73
2021/01/18 00:50:51;;;;;;;27.98;11.55;;;3.90;99.90;;;;;;5111293;28;20076;-74
2021/01/18 00:53:17;;;;;;;29.17;11.68;;;3.70;99.90;;;;;;5103545;28;20136;-73
2021/01/18 00:55:45;;;;;;;26.27;10.82;;;4.10;99.90;;;;;;5099799;28;20051;-73
2021/01/18 00:58:13;;;;;;;20.88;9.73;;;3.90;99.90;;;;;;5110869;28;20089;-72
2021/01/18 01:00:39;;;;;;;30.98;11.57;;;4.00;99.90;;;;;;5108078;28;20048;-73
2021/01/18 01:03:06;;;;;;;27.67;12.38;;;3.90;99.90;;;;;;5108807;28;20094;-74
2021/01/18 01:05:32;;;;;;;27.83;11.32;;;4.10;99.90;;;;;;5109984;28;20464;-74
2021/01/18 01:07:59;;;;;;;27.08;11.00;;;4.00;99.90;;;;;;5106045;28;20134;-73
2021/01/18 01:10:31;;;;;;;20.88;10.32;;;3.90;99.90;;;;;;5109409;28;20444;-72
2021/01/18 01:13:03;;;;;;;25.85;10.68;;;4.00;99.90;;;;;;5109672;28;20396;-72
2021/01/18 01:15:31;;;;;;;31.33;11.88;;;4.10;99.90;;;;;;5106313;28;20051;-73
2021/01/18 01:17:58;;;;;;;25.58;11.52;;;4.10;99.90;;;;;;5103005;28;20036;-72
2021/01/18 01:20:25;;;;;;;25.23;11.70;;;4.00;99.90;;;;;;5107467;28;20047;-73
2021/01/18 01:22:53;;;;;;;28.55;12.18;;;4.20;99.90;;;;;;5107565;28;20509;-73
2021/01/18 01:25:22;;;;;;;33.33;12.25;;;4.20;99.90;;;;;;5108752;28;20131;-74
2021/01/18 01:27:48;;;;;;;23.25;11.38;;;4.20;99.90;;;;;;5108079;28;20054;-74
2021/01/18 01:30:17;;;;;;;25.13;11.25;;;4.10;99.90;;;;;;5096366;28;20056;-76
2021/01/18 01:32:49;;;;;;;25.63;11.30;;;4.10;99.90;;;;;;5109486;28;20139;-73
2021/01/18 01:35:24;;;;;;;27.08;11.32;;;4.10;99.90;;;;;;5102920;28;20502;-73
2021/01/18 01:37:52;;;;;;;24.67;11.52;;;4.00;99.90;;;;;;5109413;28;20072;-72
2021/01/18 01:40:19;;;;;;;19.83;10.02;;;4.00;99.90;;;;;;5109532;28;20047;-75
2021/01/18 01:42:46;;;;;;;20.60;10.43;;;4.20;99.90;;;;;;5103464;28;20087;-73
2021/01/18 01:45:15;;;;;;;24.63;10.60;;;4.20;99.90;;;;;;5112208;28;20118;-74
2021/01/18 01:47:52;;;;;;;22.02;10.48;;;4.40;99.90;;;;;;5119201;27;20067;-73
2021/01/18 01:50:30;;;;;;;24.50;10.48;;;4.30;99.90;;;;;;5099806;28;20058;-75
2021/01/18 01:53:02;;;;;;;23.63;10.55;;;4.30;99.90;;;;;;5111903;28;20401;-74
2021/01/18 01:55:30;;;;;;;25.13;11.25;;;4.30;99.90;;;;;;5108348;28;20087;-75
2021/01/18 01:57:58;;;;;;;27.85;11.02;;;4.30;99.90;;;;;;5107247;28;20452;-75
2021/01/18 02:00:36;;;;;;;22.30;10.13;;;4.50;99.90;;;;;;5111904;28;20044;-74
2021/01/18 02:03:07;;;;;;;22.85;10.20;;;4.40;99.90;;;;;;5105596;28;20039;-74
2021/01/18 02:05:34;;;;;;;21.13;10.65;;;4.40;99.90;;;;;;5106051;28;20044;-74
2021/01/18 02:08:03;;;;;;;21.98;10.23;;;4.40;99.90;;;;;;5110237;28;20075;-73
2021/01/18 02:10:31;;;;;;;31.45;11.35;;;4.50;99.90;;;;;;5104777;28;20050;-74
2021/01/18 02:13:20;;;;;;;20.33;10.00;;;4.60;99.90;;;;;;5110296;28;20082;-74
2021/01/18 02:16:19;;;;;;;21.50;9.82;;;4.50;99.90;;;;;;5111201;28;20134;-76
2021/01/18 02:19:11;;;;;;;22.55;10.40;;;4.50;99.90;;;;;;5106616;28;20043;-74
2021/01/18 02:21:59;;;;;;;23.90;10.43;;;4.80;99.90;;;;;;5100490;28;20047;-75
2021/01/18 02:24:34;;;;;;;25.33;10.35;;;4.60;99.90;;;;;;5099775;28;21431;-74
2021/01/18 02:27:03;;;;;;;19.45;8.02;;;4.60;99.90;;;;;;5109347;28;20559;-75
2021/01/18 02:30:04;;;;;;;18.27;7.18;;;4.70;99.90;;;;;;5107907;28;20047;-74
2021/01/18 02:32:53;;;;;;;18.95;7.22;;;4.80;99.90;;;;;;5099464;28;20055;-74
2021/01/18 02:35:47;;;;;;;17.23;6.68;;;5.10;99.90;;;;;;5109394;28;20047;-76
2021/01/18 02:38:21;;;;;;;15.60;6.70;;;4.80;99.90;;;;;;5102905;28;20448;-73
2021/01/18 02:41:00;;;;;;;24.00;6.82;;;5.00;99.90;;;;;;5101763;28;20075;-74
2021/01/18 02:44:01;;;;;;;17.08;6.80;;;4.90;99.90;;;;;;5100203;28;20091;-73
2021/01/18 02:46:29;;;;;;;15.05;6.20;;;4.70;99.90;;;;;;5074981;28;20090;-75
2021/01/18 02:48:57;;;;;;;14.05;6.15;;;4.90;99.90;;;;;;5109243;28;20051;-75
2021/01/18 02:51:27;;;;;;;17.90;6.55;;;4.90;99.90;;;;;;5110039;27;20052;-73
2021/01/18 02:53:58;;;;;;;12.90;5.85;;;4.90;99.90;;;;;;5111343;28;20478;-74
2021/01/18 02:56:27;;;;;;;14.73;6.35;;;4.90;99.90;;;;;;5110310;28;20079;-74
2021/01/18 02:58:55;;;;;;;13.20;6.28;;;5.00;99.90;;;;;;5113873;28;20078;-75
2021/01/18 03:02:03;;;;;;;13.73;5.82;;;4.90;99.90;;;;;;5108896;28;20061;-74
2021/01/18 03:05:07;;;;;;;13.70;5.65;;;5.00;99.90;;;;;;5100236;28;20445;-73
2021/01/18 03:08:11;;;;;;;17.27;5.65;;;5.10;99.90;;;;;;5107610;28;20190;-74
2021/01/18 03:10:40;;;;;;;11.25;5.82;;;5.00;99.90;;;;;;5102416;28;20467;-73
2021/01/18 03:13:37;;;;;;;14.68;6.10;;;5.30;99.90;;;;;;5112301;28;20069;-75
2021/01/18 03:16:15;;;;;;;12.55;5.78;;;4.90;99.90;;;;;;5101856;28;20048;-74
2021/01/18 03:18:43;;;;;;;16.40;7.28;;;4.90;99.90;;;;;;5112437;28;20039;-74
2021/01/18 03:21:10;;;;;;;17.10;6.90;;;4.90;99.90;;;;;;5110881;28;20104;-74
2021/01/18 03:23:41;;;;;;;23.65;9.23;;;4.90;99.90;;;;;;5110611;28;20043;-74
2021/01/18 03:26:07;;;;;;;;;;;4.90;99.90;;;;;;5111175;28;20101;-75
2021/01/18 03:28:33;;;;;;;25.55;9.80;;;4.60;99.90;;;;;;5100609;28;19967;-75
2021/01/18 03:31:00;;;;;;;22.65;10.02;;;4.60;99.90;;;;;;5105843;27;20459;-74
2021/01/18 03:33:26;;;;;;;21.33;10.77;;;4.60;99.90;;;;;;5109113;28;20074;-74
2021/01/18 03:35:53;;;;;;;23.40;10.55;;;4.30;99.90;;;;;;5108595;28;20047;-74
2021/01/18 03:38:21;;;;;;;24.48;11.52;;;4.30;99.90;;;;;;5113703;28;20475;-75
2021/01/18 03:40:48;;;;;;;25.15;10.85;;;4.20;99.90;;;;;;5108299;28;20546;-74
2021/01/18 03:43:14;;;;;;;20.73;9.60;;;4.20;99.90;;;;;;5110401;28;20047;-73
2021/01/18 03:45:42;;;;;;;28.17;11.45;;;4.30;99.90;;;;;;5112664;28;20071;-74
2021/01/18 03:48:11;;;;;;;26.23;11.18;;;4.30;99.90;;;;;;5107620;28;20044;-73
2021/01/18 03:50:39;;;;;;;29.55;11.15;;;4.20;99.90;;;;;;5111666;28;20450;-74
2021/01/18 03:53:05;;;;;;;22.58;10.30;;;4.40;99.90;;;;;;5109428;28;20059;-75
2021/01/18 03:55:32;;;;;;;23.60;10.93;;;4.20;99.90;;;;;;5106096;28;20077;-75
2021/01/18 03:57:59;;;;;;;26.10;10.68;;;4.20;99.90;;;;;;5110542;28;20079;-73
2021/01/18 04:00:27;;;;;;;25.70;10.18;;;4.20;99.90;;;;;;5107183;28;20154;-75
2021/01/18 04:02:54;;;;;;;21.70;9.75;;;4.50;99.90;;;;;;5104203;28;20459;-75
2021/01/18 04:05:22;;;;;;;27.10;9.82;;;4.50;99.90;;;;;;5108834;28;20044;-76
2021/01/18 04:07:49;;;;;;;23.48;9.85;;;4.50;99.90;;;;;;5109679;28;20059;-75
2021/01/18 04:10:17;;;;;;;20.42;9.02;;;4.60;99.90;;;;;;5109931;28;20462;-74
2021/01/18 04:12:46;;;;;;;22.40;9.60;;;4.40;99.90;;;;;;5099100;28;20048;-75
2021/01/18 04:15:13;;;;;;;20.48;9.32;;;4.40;99.90;;;;;;5109651;28;20035;-74
2021/01/18 04:17:45;;;;;;;15.75;9.07;;;4.60;99.90;;;;;;5102577;28;20138;-74
2021/01/18 04:20:12;;;;;;;16.95;8.82;;;4.70;99.90;;;;;;5107188;28;20044;-74
2021/01/18 04:22:46;;;;;;;21.45;9.18;;;4.40;99.90;;;;;;5113130;28;20070;-76
2021/01/18 04:25:14;;;;;;;19.48;9.90;;;5.00;99.90;;;;;;5108011;28;20085;-74
2021/01/18 04:27:48;;;;;;;18.35;8.00;;;4.50;99.90;;;;;;5106082;28;20083;-75
2021/01/18 04:30:17;;;;;;;14.35;6.53;;;4.80;99.90;;;;;;5111160;28;20071;-74
2021/01/18 04:32:50;;;;;;;12.52;5.63;;;4.70;99.90;;;;;;5104098;28;20051;-75
2021/01/18 04:35:18;;;;;;;11.68;5.53;;;4.70;99.90;;;;;;5110632;28;20414;-74
2021/01/18 04:37:45;;;;;;;11.50;5.45;;;4.70;99.90;;;;;;5108093;28;20051;-75
2021/01/18 04:40:11;;;;;;;13.75;4.97;;;4.80;99.90;;;;;;5105841;28;20039;-74
2021/01/18 04:42:38;;;;;;;14.25;5.15;;;4.80;99.90;;;;;;5110074;28;20045;-74
2021/01/18 04:45:08;;;;;;;11.40;4.82;;;4.80;99.90;;;;;;5109932;28;20479;-75
2021/01/18 04:47:37;;;;;;;12.02;4.00;;;5.10;99.90;;;;;;5102242;28;20044;-74
2021/01/18 04:50:04;;;;;;;10.57;4.40;;;4.90;99.90;;;;;;5107792;28;20044;-74
2021/01/18 04:52:48;;;;;;;7.85;4.45;;;5.00;99.90;;;;;;5110605;28;20486;-74
2021/01/18 04:55:23;;;;;;;10.15;4.80;;;4.80;99.90;;;;;;5107043;28;21382;-73
2021/01/18 04:58:07;;;;;;;7.20;3.90;;;4.80;99.90;;;;;;5102975;28;20067;-74
2021/01/18 05:00:55;;;;;;;16.95;4.60;;;4.90;99.90;;;;;;5106743;28;20075;-73
2021/01/18 05:03:23;;;;;;;13.13;5.50;;;4.80;99.90;;;;;;5106499;28;20044;-74
2021/01/18 05:05:52;;;;;;;14.55;5.68;;;4.80;99.90;;;;;;5106815;28;20040;-73
2021/01/18 05:08:53;;;;;;;13.02;6.25;;;4.80;99.90;;;;;;5108515;28;20075;-74
2021/01/18 05:11:19;;;;;;;15.20;6.20;;;4.80;99.90;;;;;;5106204;27;20051;-74
2021/01/18 05:13:46;;;;;;;14.80;6.38;;;4.80;99.90;;;;;;5098363;28;20048;-73
2021/01/18 05:16:12;;;;;;;21.33;6.65;;;4.80;99.90;;;;;;5110936;28;20043;-74
2021/01/18 05:18:42;;;;;;;16.95;6.20;;;4.80;99.90;;;;;;5109050;28;20409;-74
2021/01/18 05:21:10;;;;;;;16.33;6.65;;;4.70;99.90;;;;;;5109474;28;20067;-74
2021/01/18 05:23:46;;;;;;;16.85;7.15;;;4.70;99.90;;;;;;5110366;28;20092;-72
2021/01/18 05:26:17;;;;;;;16.38;7.07;;;5.00;99.90;;;;;;5102297;28;20092;-74
2021/01/18 05:28:48;;;;;;;18.05;7.22;;;4.70;99.90;;;;;;5104845;28;20066;-74
2021/01/18 05:31:27;;;;;;;18.50;7.45;;;4.60;99.90;;;;;;5107826;28;20051;-74
2021/01/18 05:33:53;;;;;;;16.17;6.38;;;4.60;99.90;;;;;;5106406;28;20500;-75
2021/01/18 05:36:54;;;;;;;14.73;6.75;;;4.50;99.90;;;;;;5101839;28;20150;-75
2021/01/18 05:39:23;;;;;;;18.08;6.93;;;4.70;99.90;;;;;;5077186;28;20079;-74
2021/01/18 05:41:54;;;;;;;14.45;6.68;;;4.40;99.90;;;;;;5107602;28;20079;-76
2021/01/18 05:44:34;;;;;;;12.23;6.78;;;4.50;99.90;;;;;;5106937;28;20482;-74
2021/01/18 05:47:10;;;;;;;15.88;6.35;;;4.50;99.90;;;;;;5105561;28;20040;-75
2021/01/18 05:49:48;;;;;;;14.20;5.90;;;4.60;99.90;;;;;;5103490;28;20457;-75
2021/01/18 05:52:31;;;;;;;13.00;5.40;;;4.70;99.90;;;;;;5109416;28;20102;-74
2021/01/18 05:55:17;;;;;;;12.57;5.22;;;4.60;99.90;;;;;;5108802;28;20055;-74
2021/01/18 05:58:01;;;;;;;16.20;5.50;;;4.60;99.90;;;;;;5099133;28;20036;-75
2021/01/18 06:00:36;;;;;;;9.95;4.78;;;4.70;99.90;;;;;;5096055;28;20059;-75
2021/01/18 06:03:07;;;;;;;12.95;4.70;;;4.70;99.90;;;;;;5110196;28;20047;-74
2021/01/18 06:05:38;;;;;;;12.30;4.07;;;4.70;99.90;;;;;;5104314;28;20089;-76
2021/01/18 06:08:17;;;;;;;11.05;4.28;;;4.80;99.90;;;;;;5106703;28;20097;-73
2021/01/18 06:10:48;;;;;;;7.05;3.63;;;4.80;99.90;;;;;;5099731;28;20131;-76
2021/01/18 06:13:20;;;;;;;11.18;4.20;;;4.80;99.90;;;;;;5104842;28;20138;-74
2021/01/18 06:15:48;;;;;;;15.02;3.65;;;4.80;99.90;;;;;;5106443;28;20040;-73
2021/01/18 06:18:15;;;;;;;10.27;3.95;;;4.80;99.90;;;;;;5104290;28;20044;-73
2021/01/18 06:20:44;;;;;;;12.70;3.75;;;4.80;99.90;;;;;;5107294;28;20043;-73
2021/01/18 06:23:10;;;;;;;9.13;3.85;;;4.80;99.90;;;;;;5114316;28;20071;-74
2021/01/18 06:25:38;;;;;;;12.70;3.67;;;4.90;99.90;;;;;;5111683;28;20143;-74
2021/01/18 06:28:27;;;;;;;8.20;3.55;;;4.90;99.90;;;;;;5105555;28;20043;-74
2021/01/18 06:30:57;;;;;;;15.50;3.60;;;5.00;99.90;;;;;;5109773;28;20093;-74
2021/01/18 06:33:42;;;;;;;9.73;3.15;;;4.80;99.90;;;;;;5111214;28;20055;-74
2021/01/18 06:36:13;;;;;;;7.50;3.47;;;4.90;99.90;;;;;;5103380;28;20052;-74
2021/01/18 06:38:42;;;;;;;11.70;3.53;;;4.90;99.90;;;;;;5107600;27;20130;-75
2021/01/18 06:41:09;;;;;;;12.38;4.15;;;5.10;99.90;;;;;;5112402;28;20527;-75
2021/01/18 06:43:36;;;;;;;12.90;5.25;;;4.90;99.90;;;;;;5113253;28;20082;-74
2021/01/18 06:46:15;;;;;;;14.88;5.57;;;4.90;99.90;;;;;;5104733;28;20145;-75
2021/01/18 06:48:48;;;;;;;14.32;5.78;;;4.90;99.90;;;;;;5110046;28;20070;-76
2021/01/18 06:51:16;;;;;;;13.85;5.20;;;5.00;99.90;;;;;;5105226;27;20759;-74
2021/01/18 06:53:45;;;;;;;14.73;5.53;;;4.80;99.90;;;;;;5113840;28;20058;-75
2021/01/18 06:56:27;;;;;;;19.23;6.13;;;5.00;99.90;;;;;;5111027;28;20075;-75
2021/01/18 06:59:27;;;;;;;10.82;5.32;;;4.90;99.90;;;;;;5107784;28;20441;-74
2021/01/18 07:02:29;;;;;;;14.75;6.20;;;4.80;99.90;;;;;;5111060;28;20528;-72
2021/01/18 07:05:10;;;;;;;10.95;4.20;;;4.80;99.90;;;;;;5063282;28;20456;-75
2021/01/18 07:07:38;;;;;;;8.88;3.97;;;4.70;99.90;;;;;;5109559;28;20604;-74
2021/01/18 07:10:10;;;;;;;16.02;4.95;;;4.80;99.90;;;;;;5103426;28;20093;-74
2021/01/18 07:12:37;;;;;;;11.38;4.93;;;5.00;99.90;;;;;;5110698;28;20471;-75
2021/01/18 07:15:09;;;;;;;14.85;4.70;;;4.90;99.90;;;;;;5109805;27;20043;-72
2021/01/18 07:17:38;;;;;;;11.30;4.75;;;5.00;99.90;;;;;;5110218;28;20055;-72
2021/01/18 07:20:11;;;;;;;15.38;4.90;;;4.80;99.90;;;;;;5110211;28;20494;-74
2021/01/18 07:23:13;;;;;;;12.57;4.97;;;4.80;99.90;;;;;;5107706;28;20051;-73
2021/01/18 07:25:47;;;;;;;12.38;5.15;;;4.90;99.90;;;;;;5116645;27;20042;-75
2021/01/18 07:28:18;;;;;;;13.15;4.22;;;4.70;99.90;;;;;;5109836;28;20077;-74
2021/01/18 07:30:45;;;;;;;12.23;4.82;;;4.80;99.90;;;;;;5108849;28;20126;-74
2021/01/18 07:33:14;;;;;;;15.10;4.80;;;4.80;99.90;;;;;;5111494;28;20479;-74
2021/01/18 07:35:44;;;;;;;9.93;4.65;;;4.80;99.90;;;;;;5111504;28;20395;-74
2021/01/18 07:38:18;;;;;;;16.88;5.53;;;4.90;99.90;;;;;;5108345;28;20075;-74
2021/01/18 07:41:33;;;;;;;12.52;4.93;;;5.00;99.90;;;;;;5107399;28;20079;-75
2021/01/18 07:43:59;;;;;;;10.55;5.07;;;4.70;99.90;;;;;;5045548;28;20077;-75
2021/01/18 07:46:26;;;;;;;12.32;4.80;;;4.80;99.90;;;;;;5039183;28;20136;-75
2021/01/18 07:48:58;;;;;;;10.13;4.95;;;5.00;99.90;;;;;;5071969;28;20097;-74
2021/01/18 07:51:29;;;;;;;11.60;4.40;;;4.80;99.90;;;;;;5109707;28;20055;-74
2021/01/18 07:53:56;;;;;;;10.85;4.80;;;4.70;99.90;;;;;;5102492;28;20723;-73
2021/01/18 07:56:30;;;;;;;11.05;4.68;;;4.80;99.90;;;;;;5113498;28;20671;-75
2021/01/18 07:58:56;;;;;;;15.48;4.82;;;4.80;99.90;;;;;;5109498;27;20071;-74
2021/01/18 08:01:28;;;;;;;12.70;5.03;;;4.70;99.90;;;;;;5107795;28;20083;-74
2021/01/18 08:04:18;;;;;;;11.80;4.65;;;4.60;99.90;;;;;;5097723;28;20044;-74
2021/01/18 08:07:02;;;;;;;12.82;4.57;;;4.70;99.90;;;;;;5105969;28;20067;-74
2021/01/18 08:09:29;;;;;;;9.32;5.00;;;4.70;99.90;;;;;;5104618;28;20070;-75
2021/01/18 08:12:30;;;;;;;15.98;4.78;;;4.70;99.90;;;;;;5106222;28;20101;-75
2021/01/18 08:15:04;;;;;;;8.35;4.43;;;4.80;99.90;;;;;;5106047;28;20070;-75
2021/01/18 08:17:31;;;;;;;10.23;4.88;;;4.70;99.90;;;;;;5107684;28;20454;-74
2021/01/18 08:20:12;;;;;;;18.02;5.45;;;4.80;99.90;;;;;;5094590;28;20048;-74
2021/01/18 08:22:39;;;;;;;11.63;4.65;;;4.70;99.90;;;;;;5107087;28;20054;-74
2021/01/18 08:25:07;;;;;;;13.43;5.60;;;4.90;99.90;;;;;;5103688;28;20044;-74
2021/01/18 08:27:55;;;;;;;20.05;5.30;;;4.80;99.90;;;;;;5111832;28;20100;-73
2021/01/18 08:30:41;;;;;;;10.88;5.15;;;4.50;99.90;;;;;;5104970;27;22160;-73
2021/01/18 08:33:17;;;;;;;11.20;5.68;;;4.70;99.90;;;;;;5108804;28;20083;-75
2021/01/18 08:35:49;;;;;;;14.07;5.22;;;4.60;99.90;;;;;;5109070;28;20086;-75
2021/01/18 08:38:23;;;;;;;13.65;5.97;;;4.60;99.90;;;;;;5110936;28;20047;-75
2021/01/18 08:40:52;;;;;;;15.05;6.93;;;4.70;99.90;;;;;;5107015;27;20067;-75
2021/01/18 08:43:20;;;;;;;15.68;6.60;;;4.70;99.90;;;;;;5112080;28;20044;-74
2021/01/18 08:45:48;;;;;;;16.42;6.68;;;4.80;99.90;;;;;;5104514;27;20044;-73
2021/01/18 08:48:20;;;;;;;21.48;6.82;;;4.70;99.90;;;;;;5110040;27;20077;-73
2021/01/18 08:50:55;;;;;;;12.60;6.00;;;4.90;99.90;;;;;;5109103;27;20048;-74
2021/01/18 08:53:32;;;;;;;14.32;7.22;;;4.60;99.90;;;;;;5105245;28;20429;-74
2021/01/18 08:56:05;;;;;;;22.85;7.13;;;4.70;99.90;;;;;;5107283;28;20044;-74
2021/01/18 08:58:43;;;;;;;13.93;7.20;;;4.70;99.90;;;;;;5105037;28;20427;-74
2021/01/18 09:01:13;;;;;;;24.23;6.78;;;4.80;99.90;;;;;;5107286;28;20092;-74
2021/01/18 09:03:40;;;;;;;21.25;7.30;;;4.70;99.90;;;;;;5107073;28;20050;-74
2021/01/18 09:06:06;;;;;;;20.75;7.40;;;4.70;99.90;;;;;;5108576;28;20539;-73
2021/01/18 09:08:33;;;;;;;16.45;7.28;;;4.80;99.90;;;;;;5106639;28;20055;-72
2021/01/18 09:11:05;;;;;;;19.00;8.02;;;4.80;99.90;;;;;;5105121;28;20117;-73
2021/01/18 09:13:33;;;;;;;19.27;6.93;;;4.70;99.90;;;;;;5104068;28;20063;-74
2021/01/18 09:16:03;;;;;;;14.50;5.93;;;4.80;99.90;;;;;;5106524;28;20154;-74
2021/01/18 09:18:29;;;;;;;20.85;7.53;;;4.80;99.90;;;;;;5110009;28;20096;-71
2021/01/18 09:20:58;;;;;;;17.90;7.47;;;4.90;99.90;;;;;;5105640;28;20411;-73
2021/01/18 09:23:27;;;;;;;16.42;6.53;;;5.00;99.90;;;;;;5097301;28;20100;-75
2021/01/18 09:26:11;;;;;;;20.42;8.13;;;4.80;99.90;;;;;;5100455;28;20447;-73
2021/01/18 09:28:54;;;;;;;21.98;7.72;;;5.10;99.90;;;;;;5106597;28;20059;-74
2021/01/18 09:31:21;;;;;;;17.42;7.85;;;5.10;99.90;;;;;;5093178;28;20469;-74
2021/01/18 09:33:48;;;;;;;17.98;6.93;;;5.10;99.90;;;;;;5100844;28;20083;-75
2021/01/18 09:36:16;;;;;;;22.65;8.35;;;4.80;99.90;;;;;;5106205;28;20047;-74
2021/01/18 09:38:44;;;;;;;14.57;7.68;;;5.00;99.90;;;;;;5098913;28;20479;-73
2021/01/18 09:41:11;;;;;;;16.02;7.70;;;5.00;99.90;;;;;;5109312;28;20097;-72
2021/01/18 09:43:40;;;;;;;17.05;7.68;;;5.30;99.90;;;;;;5107591;28;20494;-73
2021/01/18 09:46:07;;;;;;;16.48;7.72;;;5.30;99.90;;;;;;5103150;28;20040;-74
2021/01/18 09:48:33;;;;;;;18.75;8.13;;;5.20;99.90;;;;;;5107409;28;20419;-73
2021/01/18 09:51:08;;;;;;;20.05;8.02;;;5.20;99.90;;;;;;5100621;28;20873;-73
2021/01/18 09:53:35;;;;;;;17.00;7.82;;;5.10;99.90;;;;;;5104776;28;20051;-72
2021/01/18 09:56:07;;;;;;;16.75;7.18;;;5.30;99.90;;;;;;5102878;28;20071;-72
2021/01/18 09:58:54;;;;;;;19.17;7.97;;;5.30;99.90;;;;;;5102808;28;20486;-72
2021/01/18 10:01:25;;;;;;;15.38;7.20;;;5.30;99.90;;;;;;5102245;28;20050;-71
2021/01/18 10:04:05;;;;;;;16.90;8.68;;;5.30;99.90;;;;;;5100765;28;20051;-72
2021/01/18 10:06:33;;;;;;;17.13;7.57;;;5.50;99.90;;;;;;5097371;28;20104;-72
2021/01/18 10:09:14;;;;;;;20.75;8.45;;;5.50;99.90;;;;;;5103827;28;20093;-73
2021/01/18 10:11:50;;;;;;;17.33;7.70;;;5.60;99.90;;;;;;5100488;28;20134;-68
2021/01/18 10:14:20;;;;;;;15.73;7.88;;;5.70;99.90;;;;;;5100146;28;20043;-69
2021/01/18 10:17:00;;;;;;;20.35;8.63;;;5.60;99.90;;;;;;5103238;28;20045;-70
2021/01/18 10:19:27;;;;;;;16.38;8.02;;;5.70;99.90;;;;;;5096301;28;20126;-71
2021/01/18 10:21:54;;;;;;;16.23;8.40;;;5.70;99.90;;;;;;5104633;28;20130;-70
2021/01/18 10:24:28;;;;;;;20.35;9.15;;;5.70;99.90;;;;;;5100388;28;20079;-70
2021/01/18 10:27:03;;;;;;;22.15;8.35;;;5.70;99.90;;;;;;5105616;28;20124;-70
2021/01/18 10:29:30;;;;;;;14.73;7.45;;;5.70;99.90;;;;;;5105445;28;20105;-69
2021/01/18 10:31:57;;;;;;;16.77;7.97;;;5.70;99.90;;;;;;5103430;28;20134;-70
2021/01/18 10:34:28;;;;;;;19.60;8.10;;;5.80;99.90;;;;;;5098956;28;20056;-70
2021/01/18 10:36:55;;;;;;;;;;;5.70;99.90;;;;;;5105007;28;20075;-70
2021/01/18 10:39:28;;;;;;;16.80;8.05;;;5.60;99.90;;;;;;5104170;28;20835;-69
2021/01/18 10:42:08;;;;;;;14.60;7.00;;;5.50;99.90;;;;;;5102455;28;20048;-69
2021/01/18 10:44:48;;;;;;;15.05;6.57;;;5.60;99.90;;;;;;5097207;28;20406;-71
2021/01/18 10:47:14;;;;;;;13.98;6.80;;;5.60;99.90;;;;;;5102840;28;20051;-69
2021/01/18 10:49:42;;;;;;;11.48;5.88;;;5.50;99.90;;;;;;5105049;28;20051;-71
2021/01/18 10:52:11;;;;;;;15.38;6.97;;;5.60;99.90;;;;;;5100213;28;20495;-69
2021/01/18 10:54:38;;;;;;;15.77;6.70;;;5.60;99.90;;;;;;5101074;28;20406;-68
2021/01/18 10:57:19;;;;;;;16.17;7.32;;;5.80;99.90;;;;;;5103310;28;20519;-69
2021/01/18 11:00:04;;;;;;;11.90;6.80;;;5.80;99.90;;;;;;5099737;28;20345;-70
2021/01/18 11:02:31;;;;;;;15.45;6.70;;;5.90;99.90;;;;;;5095404;28;20078;-70
2021/01/18 11:04:58;;;;;;;15.68;7.82;;;5.90;99.90;;;;;;5096100;28;20071;-68
2021/01/18 11:07:25;;;;;;;12.70;6.65;;;5.90;99.90;;;;;;5099155;28;20090;-72
2021/01/18 11:09:56;;;;;;;12.77;6.88;;;5.80;99.90;;;;;;5104419;28;20149;-69
2021/01/18 11:12:32;;;;;;;;;;;5.90;99.90;;;;;;5105206;28;20147;-69
2021/01/18 11:15:00;;;;;;;16.90;5.90;;;5.90;99.90;;;;;;5111117;28;19955;-70
2021/01/18 11:17:28;;;;;;;14.60;6.82;;;5.90;99.90;;;;;;5099142;28;20047;-71
2021/01/18 11:19:54;;;;;;;12.95;5.97;;;5.90;99.90;;;;;;5104284;27;20048;-69
2021/01/18 11:22:21;;;;;;;11.55;6.13;;;6.00;99.90;;;;;;5101934;28;20451;-69
2021/01/18 11:24:47;;;;;;;12.98;6.00;;;6.00;99.90;;;;;;5101923;28;20452;-73
2021/01/18 11:27:14;;;;;;;14.50;5.78;;;5.90;99.90;;;;;;5103043;28;20075;-71
2021/01/18 11:29:41;;;;;;;12.98;6.10;;;6.00;99.90;;;;;;5102041;28;20055;-71
2021/01/18 11:32:07;;;;;;;13.75;6.10;;;6.00;99.90;;;;;;5105254;28;20550;-69
2021/01/18 11:34:34;;;;;;;15.52;5.90;;;5.90;99.90;;;;;;5108135;28;20079;-69
2021/01/18 11:37:04;;;;;;;12.55;5.80;;;5.90;99.90;;;;;;5107135;28;20055;-69
2021/01/18 11:39:33;;;;;;;11.98;6.18;;;5.80;99.90;;;;;;5107431;27;20074;-70
2021/01/18 11:42:03;;;;;;;14.95;6.57;;;5.80;99.90;;;;;;5105903;28;20096;-69
2021/01/18 11:44:29;;;;;;;14.75;6.60;;;5.90;99.90;;;;;;5106093;27;20463;-71
2021/01/18 11:46:59;;;;;;;18.50;6.50;;;5.80;99.90;;;;;;5107301;28;20047;-70
2021/01/18 11:49:26;;;;;;;12.57;6.38;;;5.90;99.90;;;;;;5102943;28;20055;-69
2021/01/18 11:51:58;;;;;;;15.73;6.28;;;5.80;99.90;;;;;;5105479;27;20100;-69
2021/01/18 11:54:25;;;;;;;16.90;6.25;;;5.90;99.90;;;;;;5103955;28;20539;-70
2021/01/18 11:56:51;;;;;;;14.80;6.70;;;5.90;99.90;;;;;;5099616;27;20047;-69
2021/01/18 11:59:18;;;;;;;12.05;6.65;;;5.90;99.90;;;;;;5108249;28;20116;-68
2021/01/18 12:01:45;;;;;;;16.98;5.68;;;6.00;99.90;;;;;;5100337;28;20109;-69
2021/01/18 12:04:12;;;;;;;12.82;5.72;;;6.00;99.90;;;;;;5106615;28;20043;-68
2021/01/18 12:06:40;;;;;;;12.18;5.72;;;5.90;99.90;;;;;;5107784;28;20093;-69
2021/01/18 12:09:07;;;;;;;15.13;6.22;;;6.00;99.90;;;;;;5104120;28;20047;-67
2021/01/18 12:11:39;;;;;;;12.98;6.28;;;6.10;99.90;;;;;;5095029;28;20076;-70
2021/01/18 12:14:05;;;;;;;12.48;5.95;;;6.00;99.90;;;;;;5104856;28;20084;-69
2021/01/18 12:16:32;;;;;;;11.93;6.18;;;6.10;99.90;;;;;;5099477;27;20146;-70
2021/01/18 12:18:59;;;;;;;14.05;5.95;;;6.10;99.90;;;;;;5101694;28;20564;-68
2021/01/18 12:21:25;;;;;;;12.77;5.68;;;6.10;99.90;;;;;;5106093;28;20081;-75
2021/01/18 12:23:52;;;;;;;10.85;5.05;;;6.10;99.90;;;;;;5104953;28;20039;-74
2021/01/18 12:26:19;;;;;;;9.50;4.82;;;6.10;99.90;;;;;;5105225;28;20511;-72
2021/01/18 12:28:47;;;;;;;13.77;6.15;;;6.10;99.90;;;;;;5104139;28;20134;-73
2021/01/18 12:31:15;;;;;;;11.32;5.28;;;6.40;99.90;;;;;;5106512;28;20047;-74
2021/01/18 12:33:42;;;;;;;10.80;5.15;;;6.20;99.70;;;;;;5101952;28;20486;-73
2021/01/18 12:36:09;;;;;;;9.15;4.82;;;6.30;99.40;;;;;;5105068;28;20494;-72
2021/01/18 12:38:35;;;;;;;10.80;4.90;;;6.30;99.10;;;;;;5103997;28;20101;-73
2021/01/18 12:41:01;;;;;;;8.32;5.00;;;6.30;99.20;;;;;;5101821;28;20052;-73
2021/01/18 12:43:28;;;;;;;7.15;4.60;;;6.30;98.90;;;;;;5103961;28;20058;-73
2021/01/18 12:45:56;;;;;;;9.93;4.82;;;6.40;98.90;;;;;;5102961;28;20047;-73
2021/01/18 12:48:23;;;;;;;9.00;4.72;;;6.50;98.60;;;;;;5105516;28;20089;-72
2021/01/18 12:50:49;;;;;;;11.38;4.15;;;6.70;98.30;;;;;;5104637;28;20052;-73
2021/01/18 12:53:42;;;;;;;14.40;4.53;;;6.70;98.20;;;;;;5102955;27;20050;-73
2021/01/18 12:56:02;;;;;;;9.27;4.82;;;6.80;97.90;;;;;;5099085;28;20073;-73
2021/01/18 12:58:29;;;;;;;7.75;4.28;;;6.80;98.00;;;;;;5104339;28;20047;-73
2021/01/18 13:00:58;;;;;;;11.75;4.15;;;6.80;97.70;;;;;;5104660;28;20099;-73
2021/01/18 13:03:24;;;;;;;6.38;2.60;;;6.80;97.50;;;;;;5106469;28;20044;-71
2021/01/18 13:05:51;;;;;;;8.75;4.82;;;6.70;97.10;;;;;;5100959;28;20043;-74
2021/01/18 13:08:17;;;;;;;8.88;3.97;;;6.80;97.40;;;;;;5107261;27;20654;-72
2021/01/18 13:10:44;;;;;;;8.20;3.70;;;6.80;97.60;;;;;;5099729;28;20052;-72
2021/01/18 13:13:10;;;;;;;9.30;3.75;;;6.80;97.70;;;;;;5105584;28;20077;-73
2021/01/18 13:15:37;;;;;;;8.93;3.63;;;6.80;97.60;;;;;;5102879;28;20078;-73
2021/01/18 13:18:03;;;;;;;9.63;3.55;;;6.70;97.30;;;;;;5100784;28;20051;-73